createdAt,value
2018-12-11T00:02:01.935Z,7.63
2018-12-11T00:04:32.903Z,6.90
2018-12-11T00:07:04.051Z,7.93
2018-12-11T00:09:37.379Z,13.33
2018-12-11T00:12:11.324Z,6.87
2018-12-11T00:14:49.597Z,7.40
2018-12-11T00:17:24.348Z,14.83
2018-12-11T00:19:56.443Z,13.13
2018-12-11T00:22:27.521Z,6.63
2018-12-11T00:25:02.532Z,10.87
2018-12-11T00:27:35.026Z,16.23
2018-12-11T00:30:06.111Z,11.33
2018-12-11T00:32:37.236Z,14.30
2018-12-11T00:35:08.800Z,8.80
2018-12-11T00:37:41.369Z,10.87
2018-12-11T00:40:12.770Z,10.27
2018-12-11T00:42:47.017Z,10.83
2018-12-11T00:45:19.638Z,11.70
2018-12-11T00:47:52.155Z,8.87
2018-12-11T00:50:22.495Z,11.20
2018-12-11T00:52:53.309Z,9.90
2018-12-11T00:55:25.319Z,9.10
2018-12-11T00:57:56.013Z,6.17
2018-12-11T01:00:28.095Z,10.00
2018-12-11T01:03:02.562Z,8.83
2018-12-11T01:05:35.326Z,13.87
2018-12-11T01:08:08.152Z,8.60
2018-12-11T01:10:40.349Z,7.97
2018-12-11T01:13:13.027Z,7.67
2018-12-11T01:15:44.913Z,10.30
2018-12-11T01:18:16.805Z,7.83
2018-12-11T01:20:47.884Z,8.57
2018-12-11T01:23:20.096Z,7.80
2018-12-11T01:25:51.200Z,10.50
2018-12-11T01:28:24.623Z,7.77
2018-12-11T01:30:56.432Z,6.90
2018-12-11T01:33:27.878Z,7.53
2018-12-11T01:36:00.887Z,9.90
2018-12-11T01:38:32.492Z,6.87
2018-12-11T01:41:03.998Z,10.83
2018-12-11T01:43:35.760Z,10.40
2018-12-11T01:46:07.287Z,7.60
2018-12-11T01:48:38.732Z,7.93
2018-12-11T01:51:10.151Z,10.93
2018-12-11T01:53:41.134Z,8.47
2018-12-11T01:56:12.184Z,10.13
2018-12-11T01:58:43.222Z,8.07
2018-12-11T02:01:15.282Z,7.83
2018-12-11T02:03:48.050Z,8.27
2018-12-11T02:06:20.126Z,8.37
2018-12-11T02:08:51.930Z,8.67
2018-12-11T02:11:22.968Z,5.77
2018-12-11T02:13:52.620Z,9.27
2018-12-11T02:16:23.135Z,7.00
2018-12-11T02:18:52.838Z,4.40
2018-12-11T02:21:25.608Z,7.77
2018-12-11T02:23:56.309Z,7.27
2018-12-11T02:26:28.210Z,8.23
2018-12-11T02:29:02.302Z,5.60
2018-12-11T02:31:31.946Z,7.60
2018-12-11T02:34:07.826Z,6.50
2018-12-11T02:36:39.967Z,5.70
2018-12-11T02:39:10.928Z,6.60
2018-12-11T02:41:41.152Z,6.20
2018-12-11T02:44:11.946Z,6.17
2018-12-11T02:46:41.262Z,6.20
2018-12-11T02:49:09.738Z,10.40
2018-12-11T02:51:38.502Z,5.87
2018-12-11T02:54:06.969Z,8.30
2018-12-11T02:56:35.653Z,8.00
2018-12-11T02:59:04.726Z,6.37
2018-12-11T03:01:33.863Z,7.20
2018-12-11T03:04:02.743Z,8.93
2018-12-11T03:06:31.311Z,5.43
2018-12-11T03:09:00.958Z,10.50
2018-12-11T03:11:29.437Z,10.47
2018-12-11T03:13:58.263Z,10.90
2018-12-11T03:16:26.704Z,12.23
2018-12-11T03:18:55.125Z,13.40
2018-12-11T03:21:23.588Z,10.23
2018-12-11T03:23:52.023Z,10.10
2018-12-11T03:26:20.822Z,12.10
2018-12-11T03:28:50.422Z,10.77
2018-12-11T03:31:18.876Z,10.57
2018-12-11T03:33:47.303Z,10.70
2018-12-11T03:36:16.125Z,10.20
2018-12-11T03:38:45.892Z,7.83
2018-12-11T03:41:14.355Z,9.97
2018-12-11T03:43:43.118Z,7.20
2018-12-11T03:46:11.582Z,9.23
2018-12-11T03:48:40.024Z,7.23
2018-12-11T03:51:09.111Z,5.23
2018-12-11T03:53:37.552Z,8.63
2018-12-11T03:56:06.495Z,8.43
2018-12-11T03:58:37.078Z,9.67
2018-12-11T04:01:05.551Z,11.80
2018-12-11T04:03:33.989Z,12.17
2018-12-11T04:06:03.169Z,8.63
2018-12-11T04:08:31.631Z,11.87
2018-12-11T04:11:00.094Z,13.43
2018-12-11T04:13:28.530Z,8.70
2018-12-11T04:15:56.951Z,12.03
2018-12-11T04:18:25.416Z,12.60
2018-12-11T04:20:53.879Z,12.80
2018-12-11T04:23:22.729Z,14.90
2018-12-11T04:25:51.521Z,12.77
2018-12-11T04:28:20.306Z,10.63
2018-12-11T04:30:48.734Z,14.70
2018-12-11T04:33:17.977Z,15.10
2018-12-11T04:35:47.258Z,12.23
2018-12-11T04:38:15.930Z,14.23
2018-12-11T04:40:44.351Z,14.60
2018-12-11T04:43:13.873Z,16.17
2018-12-11T04:45:43.043Z,14.47
2018-12-11T04:48:11.490Z,12.43
2018-12-11T04:50:40.432Z,14.57
2018-12-11T04:53:09.843Z,14.80
2018-12-11T04:55:38.506Z,12.67
2018-12-11T04:58:07.893Z,14.50
2018-12-11T05:00:36.894Z,18.97
2018-12-11T05:03:05.404Z,15.03
2018-12-11T05:05:34.112Z,19.30
2018-12-11T05:08:05.043Z,14.73
2018-12-11T05:10:33.465Z,13.97
2018-12-11T05:13:01.935Z,16.80
2018-12-11T05:15:30.736Z,15.43
2018-12-11T05:18:00.193Z,18.50
2018-12-11T05:20:28.647Z,16.43
2018-12-11T05:22:58.009Z,11.23
2018-12-11T05:25:26.779Z,14.07
2018-12-11T05:27:55.545Z,13.73
2018-12-11T05:30:23.998Z,12.80
2018-12-11T05:32:53.542Z,10.47
2018-12-11T05:35:22.767Z,11.43
2018-12-11T05:37:51.202Z,11.90
2018-12-11T05:40:19.642Z,11.73
2018-12-11T05:42:48.590Z,11.03
2018-12-11T05:45:17.038Z,6.97
2018-12-11T05:47:45.465Z,8.50
2018-12-11T05:50:13.910Z,9.93
2018-12-11T05:52:42.775Z,9.17
2018-12-11T05:55:11.227Z,11.37
2018-12-11T05:57:40.681Z,8.43
2018-12-11T06:00:10.555Z,10.00
2018-12-11T06:02:38.992Z,10.67
2018-12-11T06:05:09.229Z,9.87
2018-12-11T06:07:38.103Z,8.37
2018-12-11T06:10:08.190Z,8.37
2018-12-11T06:12:36.870Z,7.73
2018-12-11T06:15:06.090Z,8.53
2018-12-11T06:17:35.125Z,11.77
2018-12-11T06:20:03.795Z,11.73
2018-12-11T06:22:32.435Z,6.50
2018-12-11T06:25:02.040Z,10.70
2018-12-11T06:27:30.641Z,10.13
2018-12-11T06:29:59.514Z,10.10
2018-12-11T06:32:27.970Z,8.43
2018-12-11T06:34:56.425Z,7.23
2018-12-11T06:37:25.762Z,9.40
2018-12-11T06:39:54.820Z,9.47
2018-12-11T06:42:24.274Z,8.57
2018-12-11T06:44:52.695Z,7.90
2018-12-11T06:47:21.157Z,8.77
2018-12-11T06:49:49.981Z,7.57
2018-12-11T06:52:18.439Z,7.90
2018-12-11T06:54:50.071Z,10.03
2018-12-11T06:57:18.522Z,9.50
2018-12-11T06:59:47.954Z,12.80
2018-12-11T07:02:16.794Z,11.37
2018-12-11T07:04:45.480Z,9.63
2018-12-11T07:07:13.958Z,11.90
2018-12-11T07:09:42.388Z,9.67
2018-12-11T07:12:10.822Z,10.57
2018-12-11T07:14:39.640Z,9.23
2018-12-11T07:17:09.313Z,8.20
2018-12-11T07:19:37.717Z,12.37
2018-12-11T07:22:06.246Z,14.07
2018-12-11T07:24:36.239Z,12.50
2018-12-11T07:27:04.737Z,8.40
2018-12-11T07:29:44.362Z,10.47
2018-12-11T07:32:21.750Z,8.33
2018-12-11T07:34:54.644Z,9.63
2018-12-11T07:37:27.380Z,11.53
2018-12-11T07:40:13.050Z,12.30
2018-12-11T07:42:47.016Z,12.43
2018-12-11T07:45:28.941Z,9.03
2018-12-11T07:48:08.930Z,13.73
2018-12-11T07:51:01.832Z,15.57
2018-12-11T07:53:31.348Z,16.67
2018-12-11T07:56:00.524Z,12.80
2018-12-11T07:58:48.812Z,12.23
2018-12-11T08:01:20.221Z,15.33
2018-12-11T08:03:54.051Z,11.23
2018-12-11T08:06:42.001Z,12.30
2018-12-11T08:09:15.428Z,11.10
2018-12-11T08:11:59.327Z,11.47
2018-12-11T08:14:30.706Z,10.50
2018-12-11T08:16:59.262Z,10.77
2018-12-11T08:19:29.333Z,12.97
2018-12-11T08:22:02.614Z,9.80
2018-12-11T08:24:37.376Z,10.33
2018-12-11T08:27:06.169Z,18.30
2018-12-11T08:29:40.012Z,29.20
2018-12-11T08:32:09.444Z,11.40
2018-12-11T08:34:45.500Z,14.63
2018-12-11T08:37:15.588Z,12.73
2018-12-11T08:39:45.130Z,13.63
2018-12-11T08:42:13.559Z,12.40
2018-12-11T08:44:42.379Z,13.97
2018-12-11T08:47:19.911Z,14.87
2018-12-11T08:49:52.791Z,20.03
2018-12-11T08:52:31.477Z,14.10
2018-12-11T08:55:01.372Z,15.93
2018-12-11T08:57:41.795Z,11.33
2018-12-11T09:00:16.067Z,13.70
2018-12-11T09:02:48.532Z,13.37
2018-12-11T09:05:33.738Z,11.47
2018-12-11T09:08:02.452Z,11.67
2018-12-11T09:10:35.773Z,11.83
2018-12-11T09:13:04.564Z,14.90
2018-12-11T09:15:36.553Z,11.87
2018-12-11T09:18:05.032Z,17.57
2018-12-11T09:23:20.051Z,14.40
2018-12-11T09:25:49.788Z,11.50
2018-12-11T09:28:18.288Z,13.67
2018-12-11T09:30:46.779Z,12.40
2018-12-11T09:33:19.352Z,10.77
2018-12-11T09:35:49.055Z,10.80
2018-12-11T09:38:17.818Z,12.93
2018-12-11T09:40:54.582Z,10.43
2018-12-11T09:43:23.818Z,11.93
2018-12-11T09:45:59.314Z,10.87
2018-12-11T09:48:30.872Z,13.90
2018-12-11T09:51:05.381Z,11.53
2018-12-11T09:53:37.326Z,12.50
2018-12-11T09:56:07.082Z,17.17
2018-12-11T09:58:36.335Z,12.27
2018-12-11T10:01:07.327Z,14.97
2018-12-11T10:03:37.860Z,15.23
2018-12-11T10:06:08.974Z,16.60
2018-12-11T10:08:38.155Z,13.60
2018-12-11T10:11:11.498Z,12.57
2018-12-11T10:13:44.561Z,14.17
2018-12-11T10:16:14.205Z,12.63
2018-12-11T10:18:43.249Z,11.00
2018-12-11T10:21:11.735Z,13.80
2018-12-11T10:23:40.713Z,11.27
2018-12-11T10:26:09.162Z,7.47
2018-12-11T10:28:37.584Z,8.67
2018-12-11T10:31:06.353Z,6.07
2018-12-11T10:33:35.893Z,8.53
2018-12-11T10:36:04.455Z,6.03
2018-12-11T10:38:38.420Z,7.43
2018-12-11T10:41:26.196Z,7.07
2018-12-11T10:44:02.860Z,6.13
2018-12-11T10:46:33.895Z,7.97
2018-12-11T10:49:03.481Z,7.37
2018-12-11T10:51:56.047Z,7.90
2018-12-11T10:54:51.753Z,9.47
2018-12-11T10:57:24.375Z,11.53
2018-12-11T10:59:53.060Z,10.23
2018-12-11T11:02:30.159Z,8.47
2018-12-11T11:04:58.969Z,7.83
2018-12-11T11:07:29.699Z,8.70
2018-12-11T11:09:58.513Z,8.53
2018-12-11T11:12:34.061Z,8.17
2018-12-11T11:15:05.852Z,9.00
2018-12-11T11:17:35.882Z,7.77
2018-12-11T11:20:06.338Z,7.03
2018-12-11T11:23:01.693Z,7.77
2018-12-11T11:25:40.224Z,6.00
2018-12-11T11:28:11.778Z,5.97
2018-12-11T11:31:04.841Z,9.40
2018-12-11T11:33:56.409Z,4.33
2018-12-11T11:36:46.477Z,5.67
2018-12-11T11:39:19.126Z,6.53
2018-12-11T11:42:05.971Z,6.13
2018-12-11T11:44:40.412Z,6.97
2018-12-11T11:47:10.156Z,4.73
2018-12-11T11:49:41.081Z,5.43
2018-12-11T11:52:13.579Z,5.90
2018-12-11T11:54:45.099Z,5.40
2018-12-11T11:57:13.606Z,5.27
2018-12-11T12:00:04.839Z,6.57
2018-12-11T12:02:47.038Z,7.07
2018-12-11T12:05:21.584Z,5.00
2018-12-11T12:07:50.160Z,6.90
2018-12-11T12:10:43.059Z,5.97
2018-12-11T12:13:32.960Z,7.07
2018-12-11T12:16:04.481Z,7.17
2018-12-11T12:18:40.282Z,5.53
2018-12-11T12:21:08.770Z,4.10
2018-12-11T12:23:38.638Z,4.97
2018-12-11T12:26:08.238Z,6.77
2018-12-11T12:28:36.688Z,4.40
2018-12-11T12:31:05.609Z,7.87
2018-12-11T12:33:38.834Z,8.43
2018-12-11T12:36:11.392Z,5.97
2018-12-11T12:38:45.245Z,5.93
2018-12-11T12:41:15.793Z,9.53
2018-12-11T12:43:44.423Z,10.33
2018-12-11T12:46:13.782Z,10.53
2018-12-11T12:48:48.837Z,7.33
2018-12-11T12:51:17.721Z,8.87
2018-12-11T12:53:50.423Z,8.73
2018-12-11T12:56:21.159Z,8.43
2018-12-11T12:58:52.709Z,7.87
2018-12-11T13:01:25.269Z,12.43
2018-12-11T13:03:55.220Z,6.63
2018-12-11T13:06:25.677Z,7.43
2018-12-11T13:08:55.321Z,9.17
2018-12-11T13:11:23.775Z,8.90
2018-12-11T13:13:52.223Z,8.20
2018-12-11T13:16:21.645Z,6.43
2018-12-11T13:18:50.512Z,6.87
2018-12-11T13:21:19.248Z,5.50
2018-12-11T13:23:48.350Z,5.27
2018-12-11T13:26:16.810Z,10.77
2018-12-11T13:28:45.246Z,10.10
2018-12-11T13:31:13.690Z,7.17
2018-12-11T13:33:42.490Z,8.57
2018-12-11T13:36:11.877Z,7.20
2018-12-11T13:38:40.305Z,7.10
2018-12-11T13:41:08.978Z,6.17
2018-12-11T13:43:37.528Z,8.93
2018-12-11T13:46:05.996Z,5.57
2018-12-11T13:48:35.005Z,6.50
2018-12-11T13:51:04.715Z,5.47
2018-12-11T13:53:34.056Z,6.90
2018-12-11T13:56:02.711Z,7.27
2018-12-11T13:58:31.401Z,6.97
2018-12-11T14:00:59.959Z,3.37
2018-12-11T14:03:28.874Z,4.67
2018-12-11T14:05:57.289Z,5.87
2018-12-11T14:08:26.710Z,5.03
2018-12-11T14:10:55.150Z,6.13
2018-12-11T14:13:23.590Z,7.80
2018-12-11T14:15:52.492Z,6.83
2018-12-11T14:18:21.178Z,5.80
2018-12-11T14:20:50.537Z,5.60
2018-12-11T14:26:03.308Z,6.97
2018-12-11T14:28:32.013Z,7.63
2018-12-11T14:31:01.230Z,9.67
2018-12-11T14:33:38.336Z,9.10
2018-12-11T14:36:07.287Z,6.87
2018-12-11T14:38:38.430Z,6.50
2018-12-11T14:41:06.907Z,3.57
2018-12-11T14:43:37.237Z,9.70
2018-12-11T14:46:07.331Z,9.97
2018-12-11T14:48:39.421Z,6.50
2018-12-11T14:51:08.227Z,8.67
2018-12-11T14:53:37.527Z,8.13
2018-12-11T14:56:07.716Z,6.30
2018-12-11T14:58:36.200Z,3.30
2018-12-11T15:01:05.235Z,6.57
2018-12-11T15:03:34.705Z,5.33
2018-12-11T15:06:07.450Z,10.83
2018-12-11T15:08:36.752Z,6.60
2018-12-11T15:11:05.889Z,7.03
2018-12-11T15:13:35.752Z,6.37
2018-12-11T15:16:06.022Z,6.90
2018-12-11T15:18:35.864Z,10.73
2018-12-11T15:21:04.356Z,7.17
2018-12-11T15:23:33.819Z,11.53
2018-12-11T15:26:02.905Z,9.70
2018-12-11T15:28:32.127Z,6.83
2018-12-11T15:31:10.977Z,7.83
2018-12-11T15:33:42.491Z,9.27
2018-12-11T15:36:10.961Z,6.87
2018-12-11T15:38:39.664Z,7.43
2018-12-11T15:41:08.507Z,10.20
2018-12-11T15:43:40.918Z,10.63
2018-12-11T15:46:09.362Z,8.37
2018-12-11T15:48:38.241Z,9.17
2018-12-11T15:51:07.709Z,11.00
2018-12-11T15:53:36.568Z,10.77
2018-12-11T15:56:05.454Z,10.87
2018-12-11T15:58:35.368Z,10.77
2018-12-11T16:01:04.193Z,13.97
2018-12-11T16:03:32.646Z,9.10
2018-12-11T16:06:01.379Z,9.70
2018-12-11T16:08:30.256Z,10.20
2018-12-11T16:10:59.050Z,13.60
2018-12-11T16:13:27.481Z,13.33
2018-12-11T16:15:55.910Z,10.33
2018-12-11T16:18:25.718Z,11.40
2018-12-11T16:20:54.218Z,12.93
2018-12-11T16:23:22.653Z,14.10
2018-12-11T16:25:51.215Z,11.63
2018-12-11T16:28:20.392Z,9.13
2018-12-11T16:30:48.838Z,13.83
2018-12-11T16:33:17.514Z,12.47
2018-12-11T16:35:45.976Z,10.97
2018-12-11T16:38:15.684Z,9.13
2018-12-11T16:40:44.187Z,9.30
2018-12-11T16:43:13.050Z,10.23
2018-12-11T16:45:42.446Z,10.03
2018-12-11T16:48:11.285Z,12.27
2018-12-11T16:50:41.403Z,10.70
2018-12-11T16:53:10.315Z,9.20
2018-12-11T16:55:42.402Z,9.03
2018-12-11T16:58:12.782Z,9.70
2018-12-11T17:00:42.926Z,14.53
2018-12-11T17:03:13.823Z,13.63
2018-12-11T17:05:48.413Z,14.13
2018-12-11T17:08:22.049Z,14.83
2018-12-11T17:10:54.933Z,11.17
2018-12-11T17:13:23.875Z,16.07
2018-12-11T17:15:53.258Z,15.63
2018-12-11T17:18:22.067Z,11.87
2018-12-11T17:20:50.832Z,13.30
2018-12-11T17:23:19.558Z,14.57
2018-12-11T17:25:48.259Z,12.57
2018-12-11T17:28:17.853Z,11.87
2018-12-11T17:30:55.424Z,18.70
2018-12-11T17:33:24.431Z,14.83
2018-12-11T17:35:53.329Z,13.50
2018-12-11T17:38:29.290Z,14.03
2018-12-11T17:40:59.149Z,14.30
2018-12-11T17:43:32.522Z,15.67
2018-12-11T17:46:01.456Z,14.63
2018-12-11T17:48:31.630Z,15.23
2018-12-11T17:51:02.019Z,18.70
2018-12-11T17:53:31.746Z,17.53
2018-12-11T17:56:01.308Z,13.70
2018-12-11T17:58:31.262Z,13.70
2018-12-11T18:00:59.960Z,17.27
2018-12-11T18:03:28.413Z,12.73
2018-12-11T18:05:56.911Z,17.43
2018-12-11T18:08:26.082Z,13.67
2018-12-11T18:10:55.623Z,13.23
2018-12-11T18:13:24.694Z,13.90
2018-12-11T18:15:54.037Z,19.80
2018-12-11T18:18:25.867Z,14.57
2018-12-11T18:20:54.986Z,17.57
2018-12-11T18:23:23.851Z,19.73
2018-12-11T18:25:52.295Z,17.20
2018-12-11T18:28:26.254Z,18.40
2018-12-11T18:30:56.251Z,17.07
2018-12-11T18:33:25.811Z,14.97
2018-12-11T18:35:54.433Z,13.03
2018-12-11T18:38:31.542Z,18.70
2018-12-11T18:41:04.690Z,19.80
2018-12-11T18:43:33.238Z,18.73
2018-12-11T18:46:02.878Z,18.53
2018-12-11T18:48:31.807Z,20.67
2018-12-11T18:51:04.030Z,21.63
2018-12-11T18:53:32.833Z,22.43
2018-12-11T18:56:01.245Z,19.73
2018-12-11T18:58:34.328Z,18.67
2018-12-11T19:01:00.747Z,17.63
2018-12-11T19:03:30.486Z,19.03
2018-12-11T19:05:59.443Z,20.13
2018-12-11T19:08:30.982Z,22.10
2018-12-11T19:11:00.572Z,20.20
2018-12-11T19:13:34.677Z,20.10
2018-12-11T19:16:04.815Z,21.53
2018-12-11T19:18:36.010Z,25.77
2018-12-11T19:21:08.120Z,20.47
2018-12-11T19:23:50.059Z,17.17
2018-12-11T19:26:23.614Z,19.17
2018-12-11T19:29:03.329Z,20.47
2018-12-11T19:31:34.673Z,21.53
2018-12-11T19:34:04.584Z,24.57
2018-12-11T19:36:35.043Z,20.43
2018-12-11T19:39:10.073Z,21.33
2018-12-11T19:41:43.324Z,22.43
2018-12-11T19:44:12.073Z,20.70
2018-12-11T19:46:40.782Z,21.17
2018-12-11T19:49:09.406Z,18.17
2018-12-11T19:51:38.272Z,19.20
2018-12-11T19:54:06.770Z,21.57
2018-12-11T19:56:35.424Z,23.37
2018-12-11T19:59:04.587Z,22.73
2018-12-11T20:01:35.527Z,18.83
2018-12-11T20:04:05.771Z,23.30
2018-12-11T20:06:34.349Z,20.00
2018-12-11T20:09:05.171Z,19.03
2018-12-11T20:11:34.150Z,15.63
2018-12-11T20:14:04.463Z,22.97
2018-12-11T20:16:33.626Z,22.27
2018-12-11T20:19:02.066Z,31.83
2018-12-11T20:21:33.644Z,21.00
2018-12-11T20:24:08.662Z,21.43
2018-12-11T20:26:39.554Z,21.43
2018-12-11T20:29:08.792Z,21.53
2018-12-11T20:31:42.908Z,22.67
2018-12-11T20:34:11.910Z,21.17
2018-12-11T20:36:45.906Z,23.27
2018-12-11T20:39:15.458Z,17.13
2018-12-11T20:41:44.456Z,21.33
2018-12-11T20:44:13.968Z,22.67
2018-12-11T20:46:42.462Z,22.97
2018-12-11T20:49:11.299Z,23.40
2018-12-11T20:51:41.234Z,21.33
2018-12-11T20:54:12.250Z,25.47
2018-12-11T20:56:40.916Z,22.80
2018-12-11T20:59:09.362Z,21.23
2018-12-11T21:01:37.936Z,22.47
2018-12-11T21:04:09.471Z,22.40
2018-12-11T21:06:38.698Z,21.47
2018-12-11T21:09:13.956Z,23.63
2018-12-11T21:11:45.000Z,23.80
2018-12-11T21:14:14.160Z,22.67
2018-12-11T21:16:43.000Z,23.60
2018-12-11T21:19:11.687Z,21.63
2018-12-11T21:21:40.838Z,23.77
2018-12-11T21:24:10.801Z,22.53
2018-12-11T21:26:39.276Z,24.63
2018-12-11T21:29:08.891Z,25.60
2018-12-11T21:31:37.367Z,28.93
2018-12-11T21:34:06.298Z,24.17
2018-12-11T21:36:35.998Z,23.60
2018-12-11T21:39:07.535Z,26.87
2018-12-11T21:41:36.223Z,24.40
2018-12-11T21:44:04.725Z,25.10
2018-12-11T21:46:33.169Z,24.30
2018-12-11T21:49:01.634Z,25.00
2018-12-11T21:51:30.209Z,25.10
2018-12-11T21:53:58.703Z,24.33
2018-12-11T21:56:27.140Z,22.57
2018-12-11T21:58:56.812Z,21.33
2018-12-11T22:01:25.250Z,26.17
2018-12-11T22:03:54.492Z,24.13
2018-12-11T22:06:23.150Z,20.83
2018-12-11T22:08:51.986Z,19.00
2018-12-11T22:11:20.743Z,20.03
2018-12-11T22:13:50.005Z,15.33
2018-12-11T22:16:18.552Z,21.43
2018-12-11T22:18:47.035Z,19.97
2018-12-11T22:21:18.490Z,18.57
2018-12-11T22:23:46.954Z,20.97
2018-12-11T22:26:15.400Z,18.27
2018-12-11T22:28:43.846Z,21.50
2018-12-11T22:31:12.307Z,17.63
2018-12-11T22:33:41.581Z,17.50
2018-12-11T22:36:10.060Z,18.67
2018-12-11T22:38:38.507Z,22.20
2018-12-11T22:41:08.810Z,24.33
2018-12-11T22:43:37.490Z,28.77
2018-12-11T22:46:06.059Z,22.57
2018-12-11T22:48:35.945Z,21.80
2018-12-11T22:51:06.048Z,24.83
2018-12-11T22:53:34.717Z,21.00
2018-12-11T22:56:03.398Z,22.87
2018-12-11T22:58:31.855Z,21.27
2018-12-11T23:01:00.627Z,21.90
2018-12-11T23:03:29.503Z,23.67
2018-12-11T23:05:57.959Z,22.07
2018-12-11T23:08:26.646Z,24.23
2018-12-11T23:10:55.113Z,19.60
2018-12-11T23:13:23.710Z,27.43
2018-12-11T23:15:52.155Z,23.23
2018-12-11T23:18:21.481Z,23.33
2018-12-11T23:20:50.578Z,22.80
2018-12-11T23:23:19.518Z,26.80
2018-12-11T23:25:47.986Z,24.93
2018-12-11T23:28:16.560Z,24.63
2018-12-11T23:30:45.054Z,19.97
2018-12-11T23:33:14.083Z,26.07
2018-12-11T23:35:42.789Z,19.87
2018-12-11T23:38:12.028Z,22.60
2018-12-11T23:40:40.841Z,20.47
2018-12-11T23:43:10.354Z,26.80
2018-12-11T23:45:39.215Z,22.73
2018-12-11T23:48:08.074Z,22.77
2018-12-11T23:50:36.751Z,26.47
2018-12-11T23:53:06.240Z,24.60
2018-12-11T23:55:36.164Z,25.60
2018-12-11T23:58:06.262Z,24.40
